createdAt,value
2019-02-14T00:02:26.905Z,7.77
2019-02-14T00:04:58.192Z,8.00
2019-02-14T00:07:29.769Z,7.97
2019-02-14T00:10:01.229Z,8.33
2019-02-14T00:12:32.814Z,8.47
2019-02-14T00:15:04.378Z,8.10
2019-02-14T00:17:36.293Z,8.67
2019-02-14T00:20:09.579Z,9.03
2019-02-14T00:22:40.906Z,9.27
2019-02-14T00:25:12.798Z,8.77
2019-02-14T00:27:45.047Z,10.50
2019-02-14T00:30:16.430Z,9.03
2019-02-14T00:32:47.796Z,10.07
2019-02-14T00:35:24.956Z,9.70
2019-02-14T00:37:52.064Z,10.83
2019-02-14T00:40:23.421Z,10.27
2019-02-14T00:42:54.723Z,10.13
2019-02-14T00:45:26.044Z,10.33
2019-02-14T00:47:57.364Z,8.50
2019-02-14T00:50:28.626Z,8.20
2019-02-14T00:53:00.685Z,9.10
2019-02-14T00:55:32.451Z,10.17
2019-02-14T00:58:03.897Z,9.97
2019-02-14T01:00:35.860Z,10.20
2019-02-14T01:03:07.680Z,11.00
2019-02-14T01:05:39.026Z,10.30
2019-02-14T01:08:10.482Z,10.67
2019-02-14T01:10:42.112Z,10.03
2019-02-14T01:13:13.332Z,9.37
2019-02-14T01:15:44.989Z,9.57
2019-02-14T01:18:16.225Z,10.30
2019-02-14T01:20:47.568Z,10.70
2019-02-14T01:23:19.250Z,9.83
2019-02-14T01:25:50.453Z,10.20
2019-02-14T01:28:21.788Z,10.17
2019-02-14T01:30:53.178Z,10.97
2019-02-14T01:33:25.465Z,11.17
2019-02-14T01:35:57.021Z,10.57
2019-02-14T01:38:28.310Z,10.50
2019-02-14T01:41:00.114Z,9.63
2019-02-14T01:43:31.465Z,9.93
2019-02-14T01:46:02.903Z,9.50
2019-02-14T01:48:34.517Z,9.50
2019-02-14T01:51:05.827Z,9.20
2019-02-14T01:53:37.406Z,9.40
2019-02-14T01:56:08.731Z,9.63
2019-02-14T01:58:40.073Z,8.90
2019-02-14T02:01:11.611Z,9.10
2019-02-14T02:03:42.888Z,9.40
2019-02-14T02:06:14.146Z,9.50
2019-02-14T02:08:45.793Z,10.20
2019-02-14T02:11:17.131Z,9.67
2019-02-14T02:13:48.428Z,10.37
2019-02-14T02:16:19.630Z,9.80
2019-02-14T02:18:51.912Z,11.00
2019-02-14T02:21:23.264Z,11.00
2019-02-14T02:23:54.613Z,10.00
2019-02-14T02:26:25.893Z,10.27
2019-02-14T02:28:57.258Z,10.53
2019-02-14T02:31:28.474Z,10.13
2019-02-14T02:33:59.781Z,10.37
2019-02-14T02:36:31.574Z,11.20
2019-02-14T02:39:04.499Z,10.40
2019-02-14T02:41:37.077Z,9.50
2019-02-14T02:44:09.114Z,10.63
2019-02-14T02:46:40.608Z,9.87
2019-02-14T02:49:11.907Z,11.60
2019-02-14T02:51:43.454Z,10.97
2019-02-14T02:54:14.803Z,10.83
2019-02-14T02:56:46.409Z,11.40
2019-02-14T02:59:17.770Z,10.93
2019-02-14T03:01:49.102Z,9.97
2019-02-14T03:04:20.387Z,9.80
2019-02-14T03:06:52.026Z,10.47
2019-02-14T03:09:23.741Z,10.03
2019-02-14T03:11:55.409Z,10.40
2019-02-14T03:14:26.901Z,9.43
2019-02-14T03:16:58.261Z,9.77
2019-02-14T03:19:29.778Z,9.73
2019-02-14T03:22:00.962Z,9.83
2019-02-14T03:24:32.161Z,9.53
2019-02-14T03:27:03.509Z,9.30
2019-02-14T03:29:34.786Z,8.73
2019-02-14T03:32:06.195Z,8.90
2019-02-14T03:34:37.602Z,10.27
2019-02-14T03:37:10.373Z,9.83
2019-02-14T03:39:41.616Z,9.87
2019-02-14T03:42:12.957Z,10.13
2019-02-14T03:44:44.519Z,10.07
2019-02-14T03:47:15.964Z,9.37
2019-02-14T03:49:47.678Z,9.13
2019-02-14T03:52:19.053Z,8.77
2019-02-14T03:54:50.407Z,9.20
2019-02-14T03:57:21.662Z,9.50
2019-02-14T03:59:53.097Z,9.73
2019-02-14T04:02:24.433Z,10.00
2019-02-14T04:04:55.775Z,9.47
2019-02-14T04:07:27.212Z,9.87
2019-02-14T04:09:58.649Z,9.93
2019-02-14T04:12:29.835Z,9.47
2019-02-14T04:15:01.131Z,9.70
2019-02-14T04:17:32.457Z,8.63
2019-02-14T04:20:03.879Z,9.77
2019-02-14T04:22:36.325Z,9.67
2019-02-14T04:25:08.018Z,9.60
2019-02-14T04:27:39.382Z,9.30
2019-02-14T04:30:11.859Z,9.40
2019-02-14T04:32:43.142Z,10.83
2019-02-14T04:35:14.489Z,10.20
2019-02-14T04:37:45.814Z,9.77
2019-02-14T04:40:17.179Z,10.03
2019-02-14T04:42:48.432Z,10.53
2019-02-14T04:45:19.786Z,9.97
2019-02-14T04:47:51.179Z,10.73
2019-02-14T04:50:22.456Z,9.73
2019-02-14T04:52:53.725Z,10.30
2019-02-14T04:55:25.260Z,10.43
2019-02-14T04:57:57.165Z,10.77
2019-02-14T05:00:28.534Z,11.00
2019-02-14T05:03:00.095Z,10.83
2019-02-14T05:05:31.365Z,10.47
2019-02-14T05:08:03.264Z,10.63
2019-02-14T05:10:34.578Z,11.13
2019-02-14T05:13:05.916Z,11.53
2019-02-14T05:15:37.567Z,11.27
2019-02-14T05:18:09.224Z,11.77
2019-02-14T05:20:40.436Z,11.93
2019-02-14T05:23:12.103Z,11.40
2019-02-14T05:25:43.371Z,12.40
2019-02-14T05:28:14.579Z,11.33
2019-02-14T05:30:45.766Z,12.57
2019-02-14T05:33:17.159Z,11.83
2019-02-14T05:35:48.821Z,11.83
2019-02-14T05:38:20.066Z,11.80
2019-02-14T05:40:51.616Z,11.67
2019-02-14T05:43:23.513Z,10.30
2019-02-14T05:45:54.878Z,10.67
2019-02-14T05:48:26.424Z,11.20
2019-02-14T05:50:58.072Z,11.27
2019-02-14T05:53:29.342Z,12.33
2019-02-14T05:56:00.933Z,11.57
2019-02-14T05:58:32.158Z,11.20
2019-02-14T06:01:03.716Z,12.50
2019-02-14T06:03:35.130Z,11.80
2019-02-14T06:06:06.477Z,11.80
2019-02-14T06:08:37.678Z,11.37
2019-02-14T06:11:08.967Z,11.17
2019-02-14T06:13:40.176Z,11.07
2019-02-14T06:16:11.471Z,11.57
2019-02-14T06:18:43.090Z,11.57
2019-02-14T06:21:14.436Z,12.40
2019-02-14T06:23:45.632Z,12.47
2019-02-14T06:26:16.926Z,11.90
2019-02-14T06:28:48.124Z,11.77
2019-02-14T06:31:19.537Z,12.20
2019-02-14T06:33:50.944Z,12.73
2019-02-14T06:36:22.689Z,11.83
2019-02-14T06:38:55.105Z,12.07
2019-02-14T06:41:26.468Z,12.43
2019-02-14T06:43:57.902Z,11.93
2019-02-14T06:46:29.579Z,12.73
2019-02-14T06:49:00.962Z,14.07
2019-02-14T06:51:32.242Z,12.87
2019-02-14T06:54:03.742Z,13.33
2019-02-14T06:56:35.401Z,12.47
2019-02-14T06:59:06.744Z,12.87
2019-02-14T07:01:39.985Z,12.30
2019-02-14T07:04:11.327Z,12.97
2019-02-14T07:06:42.612Z,13.47
2019-02-14T07:09:13.964Z,12.87
2019-02-14T07:11:45.666Z,13.37
2019-02-14T07:14:17.266Z,13.40
2019-02-14T07:16:48.906Z,13.93
2019-02-14T07:19:20.743Z,14.57
2019-02-14T07:21:52.116Z,19.33
2019-02-14T07:24:23.713Z,21.17
2019-02-14T07:26:55.241Z,19.93
2019-02-14T07:29:26.534Z,17.87
2019-02-14T07:31:59.161Z,22.30
2019-02-14T07:34:31.046Z,18.77
2019-02-14T07:37:02.513Z,14.53
2019-02-14T07:39:34.114Z,13.00
2019-02-14T07:42:05.561Z,14.37
2019-02-14T07:44:37.242Z,13.93
2019-02-14T07:47:08.605Z,14.17
2019-02-14T07:49:40.113Z,14.20
2019-02-14T07:52:11.437Z,14.87
2019-02-14T07:54:42.788Z,14.43
2019-02-14T07:57:14.062Z,14.10
2019-02-14T07:59:45.443Z,15.47
2019-02-14T08:02:16.968Z,15.27
2019-02-14T08:04:48.241Z,13.60
2019-02-14T08:07:19.954Z,13.43
2019-02-14T08:09:51.545Z,13.57
2019-02-14T08:12:23.044Z,14.83
2019-02-14T08:14:55.276Z,15.43
2019-02-14T08:17:27.122Z,14.63
2019-02-14T08:19:58.604Z,13.30
2019-02-14T08:22:30.268Z,13.23
2019-02-14T08:25:01.533Z,13.07
2019-02-14T08:27:33.077Z,13.50
2019-02-14T08:30:05.190Z,13.40
2019-02-14T08:32:36.374Z,13.87
2019-02-14T08:35:08.207Z,14.20
2019-02-14T08:37:45.640Z,13.83
2019-02-14T08:40:20.932Z,13.53
2019-02-14T08:42:52.788Z,13.80
2019-02-14T08:45:24.558Z,13.67
2019-02-14T08:47:57.117Z,14.07
2019-02-14T08:50:28.410Z,14.33
2019-02-14T08:53:00.009Z,15.13
2019-02-14T08:55:31.414Z,13.77
2019-02-14T08:58:02.847Z,13.50
2019-02-14T09:00:34.956Z,14.03
2019-02-14T09:03:06.281Z,14.63
2019-02-14T09:05:37.909Z,13.90
2019-02-14T09:08:10.390Z,14.40
2019-02-14T09:10:41.675Z,13.87
2019-02-14T09:13:17.281Z,14.40
2019-02-14T09:15:46.235Z,14.93
2019-02-14T09:18:17.993Z,14.80
2019-02-14T09:20:49.435Z,15.23
2019-02-14T09:23:40.005Z,15.10
2019-02-14T09:26:11.333Z,14.67
2019-02-14T09:28:42.645Z,15.03
2019-02-14T09:31:14.087Z,14.67
2019-02-14T09:33:45.767Z,14.93
2019-02-14T09:36:16.933Z,16.03
2019-02-14T09:38:48.307Z,14.73
2019-02-14T09:41:19.730Z,16.00
2019-02-14T09:43:51.932Z,14.10
2019-02-14T09:46:23.288Z,14.90
2019-02-14T09:48:54.623Z,15.17
2019-02-14T09:51:26.013Z,15.37
2019-02-14T09:53:57.777Z,15.10
2019-02-14T09:56:29.163Z,15.50
2019-02-14T09:59:00.555Z,15.13
2019-02-14T10:01:31.921Z,13.80
2019-02-14T10:04:03.335Z,14.57
2019-02-14T10:06:36.952Z,14.47
2019-02-14T10:09:09.608Z,13.87
2019-02-14T10:11:40.950Z,13.37
2019-02-14T10:14:12.265Z,13.87
2019-02-14T10:16:43.613Z,14.87
2019-02-14T10:19:15.267Z,13.90
2019-02-14T10:21:46.776Z,15.70
2019-02-14T10:24:17.963Z,15.27
2019-02-14T10:26:49.288Z,15.50
2019-02-14T10:29:20.822Z,14.87
2019-02-14T10:31:52.379Z,14.90
2019-02-14T10:34:23.946Z,14.00
2019-02-14T10:36:55.450Z,15.47
2019-02-14T10:39:27.180Z,14.77
2019-02-14T10:41:58.623Z,14.80
2019-02-14T10:44:30.269Z,15.13
2019-02-14T10:47:01.822Z,15.93
2019-02-14T10:49:33.518Z,16.53
2019-02-14T10:52:04.896Z,15.90
2019-02-14T10:54:36.176Z,14.90
2019-02-14T10:57:08.032Z,15.80
2019-02-14T10:59:39.461Z,16.63
2019-02-14T11:02:11.628Z,15.43
2019-02-14T11:04:43.286Z,15.57
2019-02-14T11:07:14.621Z,16.33
2019-02-14T11:09:46.539Z,15.27
2019-02-14T11:12:17.933Z,16.10
2019-02-14T11:14:49.859Z,15.27
2019-02-14T11:17:21.251Z,15.57
2019-02-14T11:19:52.707Z,14.17
2019-02-14T11:22:23.999Z,13.40
2019-02-14T11:24:55.447Z,15.50
2019-02-14T11:27:26.743Z,15.77
2019-02-14T11:29:58.149Z,15.17
2019-02-14T11:32:29.456Z,14.93
2019-02-14T11:35:00.835Z,16.20
2019-02-14T11:37:32.126Z,16.23
2019-02-14T11:40:03.585Z,15.40
2019-02-14T11:42:35.013Z,16.03
2019-02-14T11:45:08.421Z,16.03
2019-02-14T11:47:39.705Z,16.90
2019-02-14T11:50:12.173Z,16.67
2019-02-14T11:52:43.630Z,15.93
2019-02-14T11:55:16.687Z,15.60
2019-02-14T11:57:48.141Z,16.30
2019-02-14T12:00:23.113Z,15.80
2019-02-14T12:02:55.934Z,14.90
2019-02-14T12:05:28.189Z,14.80
2019-02-14T12:08:00.092Z,15.73
2019-02-14T12:10:31.577Z,14.77
2019-02-14T12:13:02.914Z,14.87
2019-02-14T12:15:34.294Z,15.03
2019-02-14T12:18:05.673Z,15.17
2019-02-14T12:20:37.132Z,14.87
2019-02-14T12:23:08.788Z,14.87
2019-02-14T12:25:40.056Z,13.97
2019-02-14T12:28:11.538Z,14.40
2019-02-14T12:30:43.189Z,13.93
2019-02-14T12:33:14.490Z,14.13
2019-02-14T12:35:46.353Z,13.07
2019-02-14T12:38:19.710Z,12.53
2019-02-14T12:40:51.157Z,13.03
2019-02-14T12:43:22.657Z,13.33
2019-02-14T12:45:54.018Z,13.77
2019-02-14T12:48:25.316Z,13.77
2019-02-14T12:50:56.764Z,14.83
2019-02-14T12:53:28.072Z,14.07
2019-02-14T12:55:59.486Z,14.47
2019-02-14T12:58:30.840Z,14.23
2019-02-14T13:01:02.215Z,13.33
2019-02-14T13:03:33.525Z,14.37
2019-02-14T13:06:04.986Z,14.63
2019-02-14T13:08:36.541Z,15.00
2019-02-14T13:11:08.101Z,14.73
2019-02-14T13:13:39.499Z,15.13
2019-02-14T13:16:11.725Z,14.70
2019-02-14T13:18:42.995Z,14.33
2019-02-14T13:21:14.912Z,14.27
2019-02-14T13:23:46.795Z,14.27
2019-02-14T13:26:18.593Z,13.97
2019-02-14T13:28:49.893Z,13.80
2019-02-14T13:31:21.174Z,13.47
2019-02-14T13:33:52.596Z,13.37
2019-02-14T13:36:24.027Z,13.13
2019-02-14T13:38:55.680Z,12.70
2019-02-14T13:41:31.148Z,11.87
2019-02-14T13:44:00.420Z,12.43
2019-02-14T13:46:31.994Z,13.23
2019-02-14T13:49:03.455Z,12.67
2019-02-14T13:51:34.829Z,12.97
2019-02-14T13:54:06.283Z,12.40
2019-02-14T13:56:38.153Z,12.90
2019-02-14T13:59:09.653Z,12.07
2019-02-14T14:01:40.975Z,13.00
2019-02-14T14:04:13.594Z,12.00
2019-02-14T14:06:45.213Z,12.43
2019-02-14T14:09:16.664Z,11.83
2019-02-14T14:11:48.252Z,11.73
2019-02-14T14:14:19.934Z,10.93
2019-02-14T14:16:51.379Z,11.13
2019-02-14T14:19:22.791Z,11.83
2019-02-14T14:21:54.420Z,11.20
2019-02-14T14:24:25.998Z,10.83
2019-02-14T14:26:57.321Z,10.33
2019-02-14T14:29:28.900Z,11.03
2019-02-14T14:32:00.556Z,10.43
2019-02-14T14:34:31.913Z,10.77
2019-02-14T14:37:04.307Z,10.63
2019-02-14T14:39:35.579Z,9.93
2019-02-14T14:42:09.024Z,10.40
2019-02-14T14:44:44.397Z,10.93
2019-02-14T14:47:18.118Z,11.13
2019-02-14T14:49:49.756Z,10.93
2019-02-14T14:52:21.438Z,11.03
2019-02-14T14:54:52.779Z,10.70
2019-02-14T14:57:24.459Z,10.30
2019-02-14T14:59:55.816Z,10.43
2019-02-14T15:02:27.127Z,9.27
2019-02-14T15:04:58.320Z,9.27
2019-02-14T15:07:30.399Z,10.53
2019-02-14T15:10:01.876Z,10.00
2019-02-14T15:12:33.338Z,10.87
2019-02-14T15:15:04.832Z,10.37
2019-02-14T15:17:37.523Z,11.13
2019-02-14T15:20:09.131Z,9.87
2019-02-14T15:22:41.024Z,10.33
2019-02-14T15:25:12.528Z,9.93
2019-02-14T15:27:43.916Z,9.50
2019-02-14T15:30:15.399Z,10.07
2019-02-14T15:32:46.883Z,10.43
2019-02-14T15:35:18.165Z,10.00
2019-02-14T15:37:49.560Z,10.70
2019-02-14T15:40:21.059Z,9.73
2019-02-14T15:42:52.379Z,9.50
2019-02-14T15:45:23.675Z,8.83
2019-02-14T15:47:55.307Z,9.60
2019-02-14T15:50:27.882Z,9.70
2019-02-14T15:52:59.584Z,10.90
2019-02-14T15:55:30.920Z,10.80
2019-02-14T15:58:04.322Z,10.10
2019-02-14T16:00:35.595Z,9.37
2019-02-14T16:03:07.045Z,9.40
2019-02-14T16:05:40.288Z,9.10
2019-02-14T16:08:12.112Z,9.60
2019-02-14T16:10:43.471Z,9.10
2019-02-14T16:13:14.986Z,9.53
2019-02-14T16:15:46.747Z,8.60
2019-02-14T16:18:18.085Z,8.43
2019-02-14T16:20:49.858Z,8.43
2019-02-14T16:23:21.333Z,8.23
2019-02-14T16:25:54.075Z,8.27
2019-02-14T16:28:27.143Z,8.20
2019-02-14T16:30:58.855Z,7.90
2019-02-14T16:33:31.044Z,8.20
2019-02-14T16:36:02.571Z,8.20
2019-02-14T16:38:35.530Z,8.33
2019-02-14T16:41:07.737Z,8.67
2019-02-14T16:43:40.020Z,8.17
2019-02-14T16:46:11.539Z,8.10
2019-02-14T16:48:42.812Z,8.10
2019-02-14T16:51:14.121Z,8.30
2019-02-14T16:53:45.518Z,8.17
2019-02-14T16:56:16.908Z,8.83
2019-02-14T16:58:48.666Z,9.03
2019-02-14T17:01:19.940Z,8.97
2019-02-14T17:03:51.350Z,8.70
2019-02-14T17:06:22.932Z,7.97
2019-02-14T17:08:54.164Z,8.37
2019-02-14T17:11:25.443Z,8.03
2019-02-14T17:13:57.137Z,7.40
2019-02-14T17:16:28.472Z,7.90
2019-02-14T17:18:59.835Z,7.47
2019-02-14T17:21:31.555Z,7.90
2019-02-14T17:24:02.817Z,8.50
2019-02-14T17:26:36.400Z,12.63
2019-02-14T17:29:07.998Z,8.20
2019-02-14T17:31:39.259Z,7.47
2019-02-14T17:34:10.708Z,7.17
2019-02-14T17:36:42.300Z,7.07
2019-02-14T17:39:13.652Z,7.37
2019-02-14T17:41:45.079Z,7.43
2019-02-14T17:44:16.498Z,7.97
2019-02-14T17:46:47.848Z,7.40
2019-02-14T17:49:19.077Z,7.17
2019-02-14T17:51:50.379Z,7.57
2019-02-14T17:54:22.045Z,7.00
2019-02-14T17:56:53.387Z,7.10
2019-02-14T17:59:24.614Z,7.13
2019-02-14T18:01:56.601Z,7.00
2019-02-14T18:04:28.232Z,7.23
2019-02-14T18:06:59.570Z,6.37
2019-02-14T18:09:31.233Z,7.00
2019-02-14T18:12:02.579Z,6.50
2019-02-14T18:14:34.003Z,6.73
2019-02-14T18:17:05.865Z,7.07
2019-02-14T18:19:37.363Z,9.70
2019-02-14T18:22:08.989Z,7.17
2019-02-14T18:24:40.370Z,6.13
2019-02-14T18:27:12.086Z,6.70
2019-02-14T18:29:44.557Z,6.33
2019-02-14T18:32:16.275Z,14.70
2019-02-14T18:34:47.958Z,8.47
2019-02-14T18:37:19.330Z,6.80
2019-02-14T18:39:51.031Z,6.70
2019-02-14T18:42:22.856Z,10.00
2019-02-14T18:44:54.314Z,7.40
2019-02-14T18:47:25.821Z,7.17
2019-02-14T18:49:58.566Z,6.93
2019-02-14T18:52:30.277Z,6.63
2019-02-14T18:55:02.191Z,6.57
2019-02-14T18:57:33.794Z,11.73
2019-02-14T19:00:07.052Z,10.10
2019-02-14T19:02:39.456Z,11.00
2019-02-14T19:05:11.926Z,13.13
2019-02-14T19:07:44.593Z,8.63
2019-02-14T19:10:16.520Z,7.03
2019-02-14T19:12:48.138Z,6.80
2019-02-14T19:15:20.020Z,8.10
2019-02-14T19:17:51.948Z,8.43
2019-02-14T19:20:23.409Z,8.43
2019-02-14T19:22:55.068Z,10.37
2019-02-14T19:25:29.480Z,10.40
2019-02-14T19:27:59.829Z,10.40
2019-02-14T19:30:31.982Z,10.67
2019-02-14T19:33:03.576Z,10.77
2019-02-14T19:35:35.026Z,9.70
2019-02-14T19:38:06.801Z,10.27
2019-02-14T19:40:38.049Z,9.97
2019-02-14T19:43:09.438Z,9.23
2019-02-14T19:45:40.820Z,8.27
2019-02-14T19:48:12.280Z,9.17
2019-02-14T19:50:43.588Z,10.23
2019-02-14T19:53:15.286Z,12.13
2019-02-14T19:55:47.210Z,8.60
2019-02-14T19:58:19.041Z,8.77
2019-02-14T20:00:50.468Z,10.50
2019-02-14T20:03:22.000Z,10.40
2019-02-14T20:05:53.409Z,10.77
2019-02-14T20:08:24.990Z,11.53
2019-02-14T20:10:56.515Z,10.63
2019-02-14T20:13:28.053Z,8.60
2019-02-14T20:15:59.385Z,8.53
2019-02-14T20:18:30.779Z,7.63
2019-02-14T20:21:02.200Z,7.27
2019-02-14T20:23:35.183Z,7.20
2019-02-14T20:26:06.705Z,7.77
2019-02-14T20:28:38.079Z,6.90
2019-02-14T20:31:09.517Z,7.67
2019-02-14T20:33:41.155Z,10.20
2019-02-14T20:36:12.483Z,11.90
2019-02-14T20:38:44.081Z,11.83
2019-02-14T20:41:15.704Z,11.20
2019-02-14T20:43:47.504Z,9.37
2019-02-14T20:46:19.015Z,8.40
2019-02-14T20:48:51.186Z,8.67
2019-02-14T20:51:23.488Z,8.23
2019-02-14T20:53:54.998Z,7.33
2019-02-14T20:56:26.495Z,7.13
2019-02-14T20:58:58.399Z,8.10
2019-02-14T21:01:30.107Z,8.57
2019-02-14T21:04:01.662Z,8.37
2019-02-14T21:06:33.276Z,8.47
2019-02-14T21:09:05.871Z,7.83
2019-02-14T21:11:39.266Z,7.67
2019-02-14T21:14:10.740Z,8.10
2019-02-14T21:16:42.314Z,8.20
2019-02-14T21:19:14.133Z,8.40
2019-02-14T21:21:45.535Z,8.50
2019-02-14T21:24:17.079Z,8.40
2019-02-14T21:26:48.940Z,8.50
2019-02-14T21:29:20.649Z,7.73
2019-02-14T21:31:52.402Z,7.10
2019-02-14T21:34:23.963Z,8.47
2019-02-14T21:36:56.156Z,10.17
2019-02-14T21:39:28.217Z,8.03
2019-02-14T21:42:18.850Z,8.33
2019-02-14T21:44:33.062Z,7.90
2019-02-14T21:47:05.484Z,9.37
2019-02-14T21:49:37.136Z,8.43
2019-02-14T21:52:08.968Z,9.17
2019-02-14T21:54:40.770Z,8.70
2019-02-14T21:57:12.519Z,9.10
2019-02-14T21:59:44.404Z,8.53
2019-02-14T22:02:16.034Z,7.70
2019-02-14T22:04:48.677Z,8.03
2019-02-14T22:07:20.216Z,8.83
2019-02-14T22:09:51.847Z,8.93
2019-02-14T22:12:39.121Z,8.03
2019-02-14T22:14:58.169Z,7.23
2019-02-14T22:17:30.184Z,7.53
2019-02-14T22:20:01.884Z,7.63
2019-02-14T22:22:34.530Z,7.30
2019-02-14T22:25:08.262Z,7.40
2019-02-14T22:27:40.371Z,7.93
2019-02-14T22:30:14.702Z,7.80
2019-02-14T22:32:46.612Z,8.37
2019-02-14T22:35:18.626Z,9.17
2019-02-14T22:37:50.288Z,9.10
2019-02-14T22:40:21.745Z,8.27
2019-02-14T22:42:53.988Z,9.40
2019-02-14T22:45:25.494Z,8.17
2019-02-14T22:47:57.370Z,10.00
2019-02-14T22:50:29.179Z,9.53
2019-02-14T22:53:00.752Z,9.13
2019-02-14T22:55:32.467Z,9.57
2019-02-14T22:58:03.906Z,9.50
2019-02-14T23:00:43.519Z,10.97
2019-02-14T23:03:15.872Z,12.13
2019-02-14T23:05:47.700Z,12.83
2019-02-14T23:08:19.552Z,13.70
2019-02-14T23:10:51.930Z,12.50
2019-02-14T23:13:23.455Z,13.10
2019-02-14T23:15:54.884Z,13.87
2019-02-14T23:18:52.259Z,13.20
2019-02-14T23:21:23.788Z,12.37
2019-02-14T23:23:55.570Z,12.13
2019-02-14T23:26:27.117Z,12.30
2019-02-14T23:28:58.882Z,12.83
2019-02-14T23:31:30.328Z,11.83
2019-02-14T23:34:01.808Z,11.37
2019-02-14T23:36:33.644Z,12.00
2019-02-14T23:39:06.901Z,11.83
2019-02-14T23:41:40.057Z,10.97
2019-02-14T23:44:11.582Z,11.57
2019-02-14T23:46:43.084Z,12.07
2019-02-14T23:49:14.600Z,12.13
2019-02-14T23:51:46.036Z,11.90
2019-02-14T23:54:17.531Z,12.63
2019-02-14T23:56:49.115Z,11.90
2019-02-14T23:59:20.521Z,11.37
